sensor_id;sensor_type;location;lat;lon;timestamp;pressure;altitude;pressure_sealevel;temperature;humidity
49104;BME280;34915;52.926;11.116;2023-07-20T00:00:29;101021.16;;;15.67;73.14
49104;BME280;34915;52.926;11.116;2023-07-20T00:03:10;101020.78;;;15.51;73.60
49104;BME280;34915;52.926;11.116;2023-07-20T00:05:36;101018.81;;;15.51;73.22
49104;BME280;34915;52.926;11.116;2023-07-20T00:08:01;101018.06;;;15.47;73.67
49104;BME280;34915;52.926;11.116;2023-07-20T00:10:27;101023.97;;;15.49;73.72
49104;BME280;34915;52.926;11.116;2023-07-20T00:12:52;101015.66;;;15.49;73.51
49104;BME280;34915;52.926;11.116;2023-07-20T00:15:18;101013.31;;;15.48;73.44
49104;BME280;34915;52.926;11.116;2023-07-20T00:17:44;101012.56;;;15.40;73.58
49104;BME280;34915;52.926;11.116;2023-07-20T00:20:10;101022.06;;;15.36;73.68
49104;BME280;34915;52.926;11.116;2023-07-20T00:22:36;101014.19;;;15.34;74.18
49104;BME280;34915;52.926;11.116;2023-07-20T00:25:02;101030.38;;;15.36;74.16
49104;BME280;34915;52.926;11.116;2023-07-20T00:27:28;101020.94;;;15.30;74.08
49104;BME280;34915;52.926;11.116;2023-07-20T00:29:53;101024.47;;;15.30;74.01
49104;BME280;34915;52.926;11.116;2023-07-20T00:32:19;101019.75;;;15.27;74.52
49104;BME280;34915;52.926;11.116;2023-07-20T00:34:45;101025.69;;;15.26;74.20
49104;BME280;34915;52.926;11.116;2023-07-20T00:37:10;101023.38;;;15.17;74.44
49104;BME280;34915;52.926;11.116;2023-07-20T00:39:36;101008.34;;;15.18;74.20
49104;BME280;34915;52.926;11.116;2023-07-20T00:42:05;101013.81;;;15.29;73.54
49104;BME280;34915;52.926;11.116;2023-07-20T00:44:30;101013.81;;;15.32;73.83
49104;BME280;34915;52.926;11.116;2023-07-20T00:46:56;101011.47;;;15.27;73.61
49104;BME280;34915;52.926;11.116;2023-07-20T00:49:22;101005.25;;;15.09;73.74
49104;BME280;34915;52.926;11.116;2023-07-20T00:51:49;101008.78;;;15.09;74.01
49104;BME280;34915;52.926;11.116;2023-07-20T00:54:16;101017.09;;;15.06;74.18
49104;BME280;34915;52.926;11.116;2023-07-20T00:56:42;101012.34;;;15.03;73.58
49104;BME280;34915;52.926;11.116;2023-07-20T00:59:09;101011.97;;;15.01;74.44
49104;BME280;34915;52.926;11.116;2023-07-20T01:01:34;101021.84;;;15.05;74.04
49104;BME280;34915;52.926;11.116;2023-07-20T01:04:00;101010.38;;;15.10;73.33
49104;BME280;34915;52.926;11.116;2023-07-20T01:06:36;101013.53;;;15.09;73.40
49104;BME280;34915;52.926;11.116;2023-07-20T01:09:07;101011.97;;;15.04;73.58
49104;BME280;34915;52.926;11.116;2023-07-20T01:11:51;101013.16;;;15.07;73.63
49104;BME280;34915;52.926;11.116;2023-07-20T01:14:18;101022.63;;;14.99;73.20
49104;BME280;34915;52.926;11.116;2023-07-20T01:16:44;101020.31;;;14.90;73.94
49104;BME280;34915;52.926;11.116;2023-07-20T01:19:10;101026.22;;;14.92;73.87
49104;BME280;34915;52.926;11.116;2023-07-20T01:21:59;101025.47;;;14.81;73.84
49104;BME280;34915;52.926;11.116;2023-07-20T01:32:40;101022.69;;;14.88;73.61
49104;BME280;34915;52.926;11.116;2023-07-20T01:35:09;101018.00;;;14.71;74.53
49104;BME280;34915;52.926;11.116;2023-07-20T01:37:41;101023.50;;;14.81;73.92
49104;BME280;34915;52.926;11.116;2023-07-20T01:40:09;101025.09;;;14.72;74.40
49104;BME280;34915;52.926;11.116;2023-07-20T01:42:35;101036.94;;;14.72;74.17
49104;BME280;34915;52.926;11.116;2023-07-20T01:45:00;101024.31;;;14.71;74.48
49104;BME280;34915;52.926;11.116;2023-07-20T01:47:26;101030.22;;;14.73;74.50
49104;BME280;34915;52.926;11.116;2023-07-20T01:49:52;101033.38;;;14.75;74.06
49104;BME280;34915;52.926;11.116;2023-07-20T01:52:17;101029.03;;;14.78;73.89
49104;BME280;34915;52.926;11.116;2023-07-20T01:54:43;101040.47;;;14.76;74.25
49104;BME280;34915;52.926;11.116;2023-07-20T01:57:11;101031.00;;;14.77;74.22
49104;BME280;34915;52.926;11.116;2023-07-20T01:59:36;101032.97;;;14.84;73.87
49104;BME280;34915;52.926;11.116;2023-07-20T02:02:02;101026.22;;;14.88;73.98
49104;BME280;34915;52.926;11.116;2023-07-20T02:04:27;101029.03;;;14.78;73.98
49104;BME280;34915;52.926;11.116;2023-07-20T02:06:53;101030.59;;;14.79;73.89
49104;BME280;34915;52.926;11.116;2023-07-20T02:09:18;101031.78;;;14.81;73.42
49104;BME280;34915;52.926;11.116;2023-07-20T02:11:45;101028.97;;;14.92;73.67
49104;BME280;34915;52.926;11.116;2023-07-20T02:14:10;101032.56;;;14.82;73.60
49104;BME280;34915;52.926;11.116;2023-07-20T02:16:36;101027.84;;;14.79;73.62
49104;BME280;34915;52.926;11.116;2023-07-20T02:19:01;101025.84;;;14.83;73.72
49104;BME280;34915;52.926;11.116;2023-07-20T02:21:27;101036.50;;;14.84;73.18
49104;BME280;34915;52.926;11.116;2023-07-20T02:23:52;101032.94;;;14.87;73.49
49104;BME280;34915;52.926;11.116;2023-07-20T02:26:18;101028.63;;;14.83;73.92
49104;BME280;34915;52.926;11.116;2023-07-20T02:28:43;101031.75;;;14.88;73.63
49104;BME280;34915;52.926;11.116;2023-07-20T02:31:09;101022.28;;;14.86;73.46
49104;BME280;34915;52.926;11.116;2023-07-20T02:33:34;101019.13;;;14.91;73.72
49104;BME280;34915;52.926;11.116;2023-07-20T02:36:00;101027.78;;;14.97;73.05
49104;BME280;34915;52.926;11.116;2023-07-20T02:38:25;101023.50;;;14.81;73.94
49104;BME280;34915;52.926;11.116;2023-07-20T02:40:51;101027.88;;;14.72;73.92
49104;BME280;34915;52.926;11.116;2023-07-20T02:43:16;101022.75;;;14.70;74.30
49104;BME280;34915;52.926;11.116;2023-07-20T02:45:43;101023.91;;;14.73;73.91
49104;BME280;34915;52.926;11.116;2023-07-20T02:48:09;101021.56;;;14.68;73.77
49104;BME280;34915;52.926;11.116;2023-07-20T02:50:34;101027.50;;;14.63;73.66
49104;BME280;34915;52.926;11.116;2023-07-20T02:53:00;101022.78;;;14.56;74.27
49104;BME280;34915;52.926;11.116;2023-07-20T02:55:26;101027.53;;;14.52;74.75
49104;BME280;34915;52.926;11.116;2023-07-20T02:57:51;101028.31;;;14.49;74.63
49104;BME280;34915;52.926;11.116;2023-07-20T03:00:17;101027.13;;;14.46;74.62
49104;BME280;34915;52.926;11.116;2023-07-20T03:02:45;101036.59;;;14.49;74.12
49104;BME280;34915;52.926;11.116;2023-07-20T03:05:15;101034.63;;;14.49;74.65
49104;BME280;34915;52.926;11.116;2023-07-20T03:07:42;101044.50;;;14.50;73.90
49104;BME280;34915;52.926;11.116;2023-07-20T03:10:09;101046.06;;;14.51;74.28
49104;BME280;34915;52.926;11.116;2023-07-20T03:12:35;101053.19;;;14.45;74.12
49104;BME280;34915;52.926;11.116;2023-07-20T03:15:03;101049.19;;;14.36;74.16
49104;BME280;34915;52.926;11.116;2023-07-20T03:17:29;101051.16;;;14.39;74.71
49104;BME280;34915;52.926;11.116;2023-07-20T03:19:55;101046.03;;;14.27;74.40
49104;BME280;34915;52.926;11.116;2023-07-20T03:22:20;101044.84;;;14.31;74.74
49104;BME280;34915;52.926;11.116;2023-07-20T03:24:47;101042.88;;;14.32;74.21
49104;BME280;34915;52.926;11.116;2023-07-20T03:27:13;101043.72;;;14.46;73.83
49104;BME280;34915;52.926;11.116;2023-07-20T03:29:38;101041.28;;;14.38;73.89
49104;BME280;34915;52.926;11.116;2023-07-20T03:32:04;101039.72;;;14.40;73.49
49104;BME280;34915;52.926;11.116;2023-07-20T03:34:30;101038.53;;;14.38;74.23
49104;BME280;34915;52.926;11.116;2023-07-20T03:36:56;101044.84;;;14.35;74.13
49104;BME280;34915;52.926;11.116;2023-07-20T03:39:22;101050.38;;;14.28;74.52
49104;BME280;34915;52.926;11.116;2023-07-20T03:41:48;101046.44;;;14.21;74.24
49104;BME280;34915;52.926;11.116;2023-07-20T03:44:13;101057.09;;;14.27;74.44
49104;BME280;34915;52.926;11.116;2023-07-20T03:46:39;101049.19;;;14.21;74.31
49104;BME280;34915;52.926;11.116;2023-07-20T03:49:05;101058.28;;;14.29;74.74
49104;BME280;34915;52.926;11.116;2023-07-20T03:51:32;101051.97;;;14.25;74.68
49104;BME280;34915;52.926;11.116;2023-07-20T03:53:57;101059.44;;;14.28;74.55
49104;BME280;34915;52.926;11.116;2023-07-20T03:56:23;101051.97;;;14.32;74.19
49104;BME280;34915;52.926;11.116;2023-07-20T03:58:49;101053.13;;;14.35;74.60
49104;BME280;34915;52.926;11.116;2023-07-20T04:01:15;101059.84;;;14.30;74.61
49104;BME280;34915;52.926;11.116;2023-07-20T04:03:43;101066.16;;;14.27;74.70
49104;BME280;34915;52.926;11.116;2023-07-20T04:06:09;101056.28;;;14.37;74.68
49104;BME280;34915;52.926;11.116;2023-07-20T04:08:38;101063.78;;;14.36;75.25
49104;BME280;34915;52.926;11.116;2023-07-20T04:11:03;101067.31;;;14.40;74.44
49104;BME280;34915;52.926;11.116;2023-07-20T04:13:29;101061.06;;;14.47;74.74
49104;BME280;34915;52.926;11.116;2023-07-20T04:15:58;101062.22;;;14.42;74.07
49104;BME280;34915;52.926;11.116;2023-07-20T04:18:24;101067.31;;;14.40;74.29
49104;BME280;34915;52.926;11.116;2023-07-20T04:20:49;101069.75;;;14.45;74.29
49104;BME280;34915;52.926;11.116;2023-07-20T04:23:15;101070.53;;;14.49;74.07
49104;BME280;34915;52.926;11.116;2023-07-20T04:25:41;101066.97;;;14.49;74.24
49104;BME280;34915;52.926;11.116;2023-07-20T04:28:08;101071.31;;;14.53;74.26
49104;BME280;34915;52.926;11.116;2023-07-20T04:30:37;101065.00;;;14.49;74.06
49104;BME280;34915;52.926;11.116;2023-07-20T04:33:04;101069.34;;;14.47;73.65
49104;BME280;34915;52.926;11.116;2023-07-20T04:35:51;101075.66;;;14.54;73.46
49104;BME280;34915;52.926;11.116;2023-07-20T04:38:20;101080.00;;;14.55;73.63
49104;BME280;34915;52.926;11.116;2023-07-20T04:40:50;101078.41;;;14.58;72.87
49104;BME280;34915;52.926;11.116;2023-07-20T04:43:16;101078.81;;;14.57;73.56
49104;BME280;34915;52.926;11.116;2023-07-20T04:45:41;101077.22;;;14.52;73.79
49104;BME280;34915;52.926;11.116;2023-07-20T04:48:11;101086.31;;;14.49;73.90
49104;BME280;34915;52.926;11.116;2023-07-20T04:50:40;101078.78;;;14.60;74.11
49104;BME280;34915;52.926;11.116;2023-07-20T04:53:05;101082.34;;;14.68;74.07
49104;BME280;34915;52.926;11.116;2023-07-20T04:55:31;101081.97;;;14.59;73.69
49104;BME280;34915;52.926;11.116;2023-07-20T04:58:00;101078.78;;;14.60;73.98
49104;BME280;34915;52.926;11.116;2023-07-20T05:00:26;101085.13;;;14.61;73.70
49104;BME280;34915;52.926;11.116;2023-07-20T05:02:51;101089.81;;;14.71;73.40
49104;BME280;34915;52.926;11.116;2023-07-20T05:05:17;101084.69;;;14.73;72.93
49104;BME280;34915;52.926;11.116;2023-07-20T05:07:43;101087.44;;;14.80;73.25
49104;BME280;34915;52.926;11.116;2023-07-20T05:10:09;101091.78;;;14.77;72.80
49104;BME280;34915;52.926;11.116;2023-07-20T05:12:35;101089.03;;;14.74;73.03
49104;BME280;34915;52.926;11.116;2023-07-20T05:15:00;101074.41;;;14.77;73.05
49104;BME280;34915;52.926;11.116;2023-07-20T05:17:26;101073.22;;;14.78;72.70
49104;BME280;34915;52.926;11.116;2023-07-20T05:19:53;101069.28;;;14.79;73.14
49104;BME280;34915;52.926;11.116;2023-07-20T05:22:18;101079.56;;;14.75;73.48
49104;BME280;34915;52.926;11.116;2023-07-20T05:24:44;101077.19;;;14.73;73.66
49104;BME280;34915;52.926;11.116;2023-07-20T05:27:09;101079.56;;;14.68;73.73
49104;BME280;34915;52.926;11.116;2023-07-20T05:29:35;101080.75;;;14.74;73.33
49104;BME280;34915;52.926;11.116;2023-07-20T05:32:00;101084.28;;;14.74;73.32
49104;BME280;34915;52.926;11.116;2023-07-20T05:34:26;101081.94;;;14.73;73.16
49104;BME280;34915;52.926;11.116;2023-07-20T05:36:52;101089.81;;;14.78;73.16
49104;BME280;34915;52.926;11.116;2023-07-20T05:39:17;101089.81;;;14.81;73.86
49104;BME280;34915;52.926;11.116;2023-07-20T05:41:43;101085.84;;;14.86;72.94
49104;BME280;34915;52.926;11.116;2023-07-20T05:44:09;101082.66;;;14.91;73.10
49104;BME280;34915;52.926;11.116;2023-07-20T05:46:34;101085.84;;;14.82;73.20
49104;BME280;34915;52.926;11.116;2023-07-20T05:49:00;101079.94;;;14.84;73.13
49104;BME280;34915;52.926;11.116;2023-07-20T05:51:27;101079.09;;;14.94;73.09
49104;BME280;34915;52.926;11.116;2023-07-20T05:53:52;101075.94;;;14.99;73.29
49104;BME280;34915;52.926;11.116;2023-07-20T05:56:18;101082.66;;;14.95;72.39
49104;BME280;34915;52.926;11.116;2023-07-20T05:58:45;101087.41;;;14.94;72.86
49104;BME280;34915;52.926;11.116;2023-07-20T06:01:10;101078.69;;;15.06;72.38
49104;BME280;34915;52.926;11.116;2023-07-20T06:03:36;101080.63;;;15.20;72.41
49104;BME280;34915;52.926;11.116;2023-07-20T06:06:03;101085.38;;;15.19;71.42
49104;BME280;34915;52.926;11.116;2023-07-20T06:08:30;101082.22;;;15.17;70.91
49104;BME280;34915;52.926;11.116;2023-07-20T06:10:56;101091.69;;;15.16;71.33
49104;BME280;34915;52.926;11.116;2023-07-20T06:13:22;101092.06;;;15.22;71.18
49104;BME280;34915;52.926;11.116;2023-07-20T06:15:48;101090.84;;;15.27;70.61
49104;BME280;34915;52.926;11.116;2023-07-20T06:18:13;101081.34;;;15.35;70.61
49104;BME280;34915;52.926;11.116;2023-07-20T06:20:42;101084.47;;;15.44;69.72
49104;BME280;34915;52.926;11.116;2023-07-20T06:23:07;101085.63;;;15.46;69.77
49104;BME280;34915;52.926;11.116;2023-07-20T06:25:33;101093.09;;;15.53;69.07
49104;BME280;34915;52.926;11.116;2023-07-20T06:27:59;101098.63;;;15.53;69.49
49104;BME280;34915;52.926;11.116;2023-07-20T06:30:24;101096.25;;;15.55;69.06
49104;BME280;34915;52.926;11.116;2023-07-20T06:32:50;101089.19;;;15.47;69.27
49104;BME280;34915;52.926;11.116;2023-07-20T06:35:15;101104.56;;;15.51;69.34
49104;BME280;34915;52.926;11.116;2023-07-20T06:37:41;101113.28;;;15.46;68.92
49104;BME280;34915;52.926;11.116;2023-07-20T06:40:07;101101.41;;;15.53;69.58
49104;BME280;34915;52.926;11.116;2023-07-20T06:42:34;101099.03;;;15.51;69.49
49104;BME280;34915;52.926;11.116;2023-07-20T06:45:00;101104.94;;;15.54;69.28
49104;BME280;34915;52.926;11.116;2023-07-20T06:47:26;101107.31;;;15.59;69.14
49104;BME280;34915;52.926;11.116;2023-07-20T06:49:52;101101.78;;;15.55;68.46
49104;BME280;34915;52.926;11.116;2023-07-20T06:52:17;101106.16;;;15.63;68.73
49104;BME280;34915;52.926;11.116;2023-07-20T06:54:43;101107.31;;;15.59;68.19
49104;BME280;34915;52.926;11.116;2023-07-20T06:57:08;101115.63;;;15.55;68.92
49104;BME280;34915;52.926;11.116;2023-07-20T06:59:34;101111.66;;;15.60;68.55
49104;BME280;34915;52.926;11.116;2023-07-20T07:01:59;101107.31;;;15.59;68.15
49104;BME280;34915;52.926;11.116;2023-07-20T07:04:25;101108.50;;;15.65;68.67
49104;BME280;34915;52.926;11.116;2023-07-20T07:06:51;101107.69;;;15.68;68.48
49104;BME280;34915;52.926;11.116;2023-07-20T07:09:16;101102.50;;;15.80;69.17
49104;BME280;34915;52.926;11.116;2023-07-20T07:11:42;101097.72;;;15.85;68.85
49104;BME280;34915;52.926;11.116;2023-07-20T07:14:07;101108.44;;;15.79;68.28
49104;BME280;34915;52.926;11.116;2023-07-20T07:16:33;101102.94;;;15.72;68.37
49104;BME280;34915;52.926;11.116;2023-07-20T07:18:58;101104.06;;;15.81;68.51
49104;BME280;34915;52.926;11.116;2023-07-20T07:21:24;101104.00;;;15.89;68.08
49104;BME280;34915;52.926;11.116;2023-07-20T07:23:51;101104.81;;;15.89;68.25
49104;BME280;34915;52.926;11.116;2023-07-20T07:26:18;101105.53;;;15.97;67.76
49104;BME280;34915;52.926;11.116;2023-07-20T07:28:44;101102.72;;;16.04;67.97
49104;BME280;34915;52.926;11.116;2023-07-20T07:31:10;101107.75;;;16.23;68.45
49104;BME280;34915;52.926;11.116;2023-07-20T07:33:36;101116.81;;;16.27;67.49
49104;BME280;34915;52.926;11.116;2023-07-20T07:36:02;101113.59;;;16.32;66.73
49104;BME280;34915;52.926;11.116;2023-07-20T07:38:27;101123.91;;;16.28;66.80
49104;BME280;34915;52.926;11.116;2023-07-20T07:40:53;101120.31;;;16.35;66.28
49104;BME280;34915;52.926;11.116;2023-07-20T07:43:18;101120.59;;;16.48;66.94
49104;BME280;34915;52.926;11.116;2023-07-20T07:45:44;101121.72;;;16.54;65.93
49104;BME280;34915;52.926;11.116;2023-07-20T07:48:09;101126.34;;;16.71;65.75
49104;BME280;34915;52.926;11.116;2023-07-20T07:50:37;101132.25;;;16.73;64.36
49104;BME280;34915;52.926;11.116;2023-07-20T07:53:07;101124.34;;;16.71;64.96
49104;BME280;34915;52.926;11.116;2023-07-20T07:55:35;101126.72;;;16.73;65.24
49104;BME280;34915;52.926;11.116;2023-07-20T07:58:00;101127.88;;;16.79;64.27
49104;BME280;34915;52.926;11.116;2023-07-20T08:00:26;101139.44;;;16.67;64.01
49104;BME280;34915;52.926;11.116;2023-07-20T08:02:52;101140.16;;;16.74;63.91
49104;BME280;34915;52.926;11.116;2023-07-20T08:05:17;101134.50;;;16.89;64.28
49104;BME280;34915;52.926;11.116;2023-07-20T08:07:44;101133.06;;;17.11;63.82
49104;BME280;34915;52.926;11.116;2023-07-20T08:10:12;101133.78;;;17.19;62.13
49104;BME280;34915;52.926;11.116;2023-07-20T08:12:38;101132.88;;;17.29;62.41
49104;BME280;34915;52.926;11.116;2023-07-20T08:15:04;101132.81;;;17.36;61.24
49104;BME280;34915;52.926;11.116;2023-07-20T08:17:29;101136.28;;;17.44;60.61
49104;BME280;34915;52.926;11.116;2023-07-20T08:19:55;101136.47;;;17.60;60.71
49104;BME280;34915;52.926;11.116;2023-07-20T08:22:20;101131.00;;;17.53;60.50
49104;BME280;34915;52.926;11.116;2023-07-20T08:24:46;101126.00;;;17.75;61.27
49104;BME280;34915;52.926;11.116;2023-07-20T08:27:12;101130.91;;;17.94;59.08
49104;BME280;34915;52.926;11.116;2023-07-20T08:29:38;101135.19;;;17.98;57.94
49104;BME280;34915;52.926;11.116;2023-07-20T08:32:04;101135.28;;;17.91;57.12
49104;BME280;34915;52.926;11.116;2023-07-20T08:34:31;101137.88;;;18.06;58.87
49104;BME280;34915;52.926;11.116;2023-07-20T08:36:57;101134.91;;;17.89;56.84
49104;BME280;34915;52.926;11.116;2023-07-20T08:39:24;101137.69;;;17.89;58.50
49104;BME280;34915;52.926;11.116;2023-07-20T08:41:50;101146.25;;;18.02;57.56
49104;BME280;34915;52.926;11.116;2023-07-20T08:44:19;101147.69;;;17.83;56.32
49104;BME280;34915;52.926;11.116;2023-07-20T08:46:48;101147.72;;;17.80;56.25
49104;BME280;34915;52.926;11.116;2023-07-20T08:49:16;101148.66;;;18.00;57.09
49104;BME280;34915;52.926;11.116;2023-07-20T08:51:45;101151.06;;;18.25;57.80
49104;BME280;34915;52.926;11.116;2023-07-20T08:54:12;101144.91;;;18.37;55.75
49104;BME280;34915;52.926;11.116;2023-07-20T08:56:39;101144.19;;;18.06;53.81
49104;BME280;34915;52.926;11.116;2023-07-20T08:59:08;101153.16;;;18.17;52.69
49104;BME280;34915;52.926;11.116;2023-07-20T09:01:35;101146.41;;;18.42;52.68
49104;BME280;34915;52.926;11.116;2023-07-20T09:04:01;101146.41;;;18.42;51.52
49104;BME280;34915;52.926;11.116;2023-07-20T09:06:27;101143.63;;;18.69;51.71
49104;BME280;34915;52.926;11.116;2023-07-20T09:08:53;101138.84;;;18.92;52.11
49104;BME280;34915;52.926;11.116;2023-07-20T09:11:18;101132.28;;;19.03;51.07
49104;BME280;34915;52.926;11.116;2023-07-20T09:13:44;101143.03;;;19.01;50.17
49104;BME280;34915;52.926;11.116;2023-07-20T09:16:13;101138.09;;;18.88;50.14
49104;BME280;34915;52.926;11.116;2023-07-20T09:18:39;101138.03;;;18.92;48.98
49104;BME280;34915;52.926;11.116;2023-07-20T09:21:05;101138.78;;;18.73;49.33
49104;BME280;34915;52.926;11.116;2023-07-20T09:23:36;101136.44;;;18.71;50.75
49104;BME280;34915;52.926;11.116;2023-07-20T09:26:14;101129.56;;;18.99;52.24
49104;BME280;34915;52.926;11.116;2023-07-20T09:28:50;101136.09;;;19.12;49.05
49104;BME280;34915;52.926;11.116;2023-07-20T09:31:18;101140.38;;;19.17;47.16
49104;BME280;34915;52.926;11.116;2023-07-20T09:33:45;101143.38;;;19.46;48.98
49104;BME280;34915;52.926;11.116;2023-07-20T09:36:10;101145.25;;;19.52;48.09
49104;BME280;34915;52.926;11.116;2023-07-20T09:38:38;101144.66;;;19.41;47.35
49104;BME280;34915;52.926;11.116;2023-07-20T09:41:05;101138.75;;;19.59;47.55
49104;BME280;34915;52.926;11.116;2023-07-20T09:43:34;101145.81;;;19.64;47.33
49104;BME280;34915;52.926;11.116;2023-07-20T09:46:00;101142.81;;;19.74;45.27
49104;BME280;34915;52.926;11.116;2023-07-20T09:48:26;101138.03;;;19.75;44.48
49104;BME280;34915;52.926;11.116;2023-07-20T09:50:53;101141.94;;;19.77;42.79
49104;BME280;34915;52.926;11.116;2023-07-20T09:53:19;101141.31;;;19.70;42.06
49104;BME280;34915;52.926;11.116;2023-07-20T09:55:47;101139.00;;;19.45;42.03
49104;BME280;34915;52.926;11.116;2023-07-20T09:58:13;101136.59;;;19.27;43.37
49104;BME280;34915;52.926;11.116;2023-07-20T10:00:41;101133.25;;;19.16;44.84
49104;BME280;34915;52.926;11.116;2023-07-20T10:03:14;101143.72;;;19.08;45.54
49104;BME280;34915;52.926;11.116;2023-07-20T10:05:43;101141.84;;;19.02;45.33
49104;BME280;34915;52.926;11.116;2023-07-20T10:08:12;101150.13;;;19.05;46.53
49104;BME280;34915;52.926;11.116;2023-07-20T10:10:41;101143.03;;;19.01;46.22
49104;BME280;34915;52.926;11.116;2023-07-20T10:13:18;101143.03;;;19.24;45.76
49104;BME280;34915;52.926;11.116;2023-07-20T10:15:47;101135.44;;;19.44;44.17
49104;BME280;34915;52.926;11.116;2023-07-20T10:19:02;101135.94;;;19.39;44.19
49104;BME280;34915;52.926;11.116;2023-07-20T10:21:21;101140.88;;;19.51;43.16
49104;BME280;34915;52.926;11.116;2023-07-20T10:23:49;101133.97;;;19.59;42.95
49104;BME280;34915;52.926;11.116;2023-07-20T10:26:15;101125.66;;;19.76;42.67
49104;BME280;34915;52.926;11.116;2023-07-20T10:28:41;101132.22;;;19.85;41.46
49104;BME280;34915;52.926;11.116;2023-07-20T10:31:12;101132.84;;;19.93;41.11
49104;BME280;34915;52.926;11.116;2023-07-20T10:33:38;101126.59;;;20.05;39.83
49104;BME280;34915;52.926;11.116;2023-07-20T10:36:04;101125.88;;;20.01;38.96
49104;BME280;34915;52.926;11.116;2023-07-20T10:41:39;101120.09;;;20.44;40.70
49104;BME280;34915;52.926;11.116;2023-07-20T10:44:09;101120.88;;;20.45;40.54
49104;BME280;34915;52.926;11.116;2023-07-20T10:49:06;101113.13;;;20.52;40.31
49104;BME280;34915;52.926;11.116;2023-07-20T10:51:40;101111.78;;;20.73;40.59
49104;BME280;34915;52.926;11.116;2023-07-20T10:56:41;101110.31;;;20.69;37.88
49104;BME280;34915;52.926;11.116;2023-07-20T10:59:18;101117.56;;;20.66;37.98
49104;BME280;34915;52.926;11.116;2023-07-20T11:01:45;101102.72;;;20.69;38.35
49104;BME280;34915;52.926;11.116;2023-07-20T11:04:12;101110.13;;;20.76;37.13
49104;BME280;34915;52.926;11.116;2023-07-20T11:06:42;101109.75;;;20.90;38.78
49104;BME280;34915;52.926;11.116;2023-07-20T11:09:12;101109.41;;;20.88;38.74
49104;BME280;34915;52.926;11.116;2023-07-20T11:11:46;101101.44;;;21.03;39.46
49104;BME280;34915;52.926;11.116;2023-07-20T11:14:21;101112.19;;;21.17;38.40
49104;BME280;34915;52.926;11.116;2023-07-20T11:16:49;101103.69;;;21.08;37.17
49104;BME280;34915;52.926;11.116;2023-07-20T11:19:21;101109.50;;;21.13;38.20
49104;BME280;34915;52.926;11.116;2023-07-20T11:21:56;101101.78;;;21.34;38.06
49104;BME280;34915;52.926;11.116;2023-07-20T11:24:22;101102.28;;;21.45;37.50
49104;BME280;34915;52.926;11.116;2023-07-20T11:26:49;101103.59;;;21.40;38.15
49104;BME280;34915;52.926;11.116;2023-07-20T11:29:16;101116.66;;;21.14;38.42
49104;BME280;34915;52.926;11.116;2023-07-20T11:31:45;101114.59;;;21.02;38.86
49104;BME280;34915;52.926;11.116;2023-07-20T11:34:18;101116.94;;;20.75;38.63
49104;BME280;34915;52.926;11.116;2023-07-20T11:36:46;101129.50;;;20.50;40.68
49104;BME280;34915;52.926;11.116;2023-07-20T11:39:13;101123.56;;;20.32;42.48
49104;BME280;34915;52.926;11.116;2023-07-20T11:41:44;101137.53;;;19.96;45.12
49104;BME280;34915;52.926;11.116;2023-07-20T11:44:11;101132.72;;;19.80;45.94
49104;BME280;34915;52.926;11.116;2023-07-20T11:46:41;101138.03;;;19.55;46.03
49104;BME280;34915;52.926;11.116;2023-07-20T11:49:11;101141.69;;;19.72;46.50
49104;BME280;34915;52.926;11.116;2023-07-20T11:51:38;101135.88;;;19.63;45.66
49104;BME280;34915;52.926;11.116;2023-07-20T11:54:05;101127.25;;;19.77;46.51
49104;BME280;34915;52.926;11.116;2023-07-20T11:56:32;101129.81;;;20.04;44.67
49104;BME280;34915;52.926;11.116;2023-07-20T11:58:58;101125.91;;;20.17;45.32
49104;BME280;34915;52.926;11.116;2023-07-20T12:01:27;101129.16;;;20.48;45.29
49104;BME280;34915;52.926;11.116;2023-07-20T12:04:01;101137.69;;;20.58;43.04
49104;BME280;34915;52.926;11.116;2023-07-20T12:06:29;101134.84;;;20.45;43.89
49104;BME280;34915;52.926;11.116;2023-07-20T12:08:59;101127.78;;;20.40;43.69
49104;BME280;34915;52.926;11.116;2023-07-20T12:11:35;101128.28;;;20.68;43.42
49104;BME280;34915;52.926;11.116;2023-07-20T12:14:03;101127.47;;;20.83;43.06
49104;BME280;34915;52.926;11.116;2023-07-20T12:16:29;101124.75;;;20.96;39.42
49104;BME280;34915;52.926;11.116;2023-07-20T12:19:09;101113.88;;;21.14;40.65
49104;BME280;34915;52.926;11.116;2023-07-20T12:21:36;101123.16;;;21.40;40.57
49104;BME280;34915;52.926;11.116;2023-07-20T12:24:03;101105.53;;;21.69;40.88
49104;BME280;34915;52.926;11.116;2023-07-20T12:26:29;101108.44;;;21.65;41.11
49104;BME280;34915;52.926;11.116;2023-07-20T12:28:55;101107.34;;;21.34;40.74
49104;BME280;34915;52.926;11.116;2023-07-20T12:31:21;101113.88;;;21.14;39.67
49104;BME280;34915;52.926;11.116;2023-07-20T12:33:49;101113.47;;;21.00;40.47
49104;BME280;34915;52.926;11.116;2023-07-20T12:36:14;101110.44;;;20.94;41.00
49104;BME280;34915;52.926;11.116;2023-07-20T12:38:43;101098.41;;;21.26;40.17
49104;BME280;34915;52.926;11.116;2023-07-20T12:41:10;101112.25;;;21.30;39.63
49104;BME280;34915;52.926;11.116;2023-07-20T12:43:38;101116.28;;;21.29;38.64
49104;BME280;34915;52.926;11.116;2023-07-20T12:46:04;101105.69;;;21.07;36.71
49104;BME280;34915;52.926;11.116;2023-07-20T12:48:29;101117.19;;;21.38;35.95
49104;BME280;34915;52.926;11.116;2023-07-20T12:50:58;101099.09;;;21.30;34.54
49104;BME280;34915;52.926;11.116;2023-07-20T12:53:23;101107.13;;;21.28;34.13
49104;BME280;34915;52.926;11.116;2023-07-20T12:55:49;101102.59;;;21.47;34.04